createdAt,value
2022-12-09T00:00:15.424Z,100467.94
2022-12-09T00:01:21.519Z,100461.75
2022-12-09T00:02:23.419Z,100472.31
2022-12-09T00:03:25.329Z,100451.22
2022-12-09T00:04:27.333Z,100474.38
2022-12-09T00:05:29.391Z,100474.38
2022-12-09T00:06:33.512Z,100469.91
2022-12-09T00:07:36.575Z,100469.03
2022-12-09T00:08:38.489Z,100472.69
2022-12-09T00:09:40.344Z,100469.91
2022-12-09T00:10:45.021Z,100465.66
2022-12-09T00:11:46.753Z,100467.50
2022-12-09T00:12:48.740Z,100460.34
2022-12-09T00:13:56.276Z,100455.56
2022-12-09T00:14:58.240Z,100468.22
2022-12-09T00:16:00.207Z,100465.66
2022-12-09T00:17:01.987Z,100469.31
2022-12-09T00:18:04.327Z,100465.81
2022-12-09T00:19:07.426Z,100467.63
2022-12-09T00:20:09.963Z,100471.28
2022-12-09T00:21:18.498Z,100474.78
2022-12-09T00:22:20.192Z,100477.31
2022-12-09T00:23:22.300Z,100467.63
2022-12-09T00:24:24.015Z,100471.28
2022-12-09T00:25:25.811Z,100462.44
2022-12-09T00:26:28.079Z,100463.81
2022-12-09T00:27:29.908Z,100470.44
2022-12-09T00:28:31.898Z,100462.56
2022-12-09T00:29:33.788Z,100474.09
2022-12-09T00:30:35.998Z,100454.16
2022-12-09T00:31:38.854Z,100467.91
2022-12-09T00:32:41.364Z,100467.34
2022-12-09T00:33:43.834Z,100472.53
2022-12-09T00:34:45.536Z,100468.44
2022-12-09T00:35:47.397Z,100479.69
2022-12-09T00:36:49.117Z,100469.84
2022-12-09T00:37:50.968Z,100463.81
2022-12-09T00:38:54.573Z,100455.53
2022-12-09T00:39:56.342Z,100473.50
2022-12-09T00:40:58.067Z,100467.34
2022-12-09T00:41:59.966Z,100472.78
2022-12-09T00:43:03.316Z,100477.16
2022-12-09T00:44:05.548Z,100471.81
2022-12-09T00:45:08.499Z,100458.34
2022-12-09T00:46:12.559Z,100467.34
2022-12-09T00:47:14.643Z,100453.84
2022-12-09T00:48:16.384Z,100477.03
2022-12-09T00:49:19.139Z,100458.34
2022-12-09T00:50:21.586Z,100473.66
2022-12-09T00:51:25.201Z,100468.44
2022-12-09T00:52:28.483Z,100459.16
2022-12-09T00:53:30.585Z,100464.81
2022-12-09T00:54:32.815Z,100469.31
2022-12-09T00:55:34.667Z,100466.66
2022-12-09T00:56:36.754Z,100471.97
2022-12-09T00:57:40.513Z,100473.78
2022-12-09T00:58:42.380Z,100470.13
2022-12-09T00:59:44.574Z,100469.31
2022-12-09T01:00:46.309Z,100470.13
2022-12-09T01:01:48.126Z,100456.66
2022-12-09T01:02:50.035Z,100467.88
2022-12-09T01:03:52.101Z,100463.13
2022-12-09T01:04:54.270Z,100465.78
2022-12-09T01:05:56.479Z,100470.28
2022-12-09T01:06:58.264Z,100458.34
2022-12-09T01:08:02.653Z,100468.44
2022-12-09T01:09:04.773Z,100463.13
2022-12-09T01:10:08.189Z,100463.13
2022-12-09T01:11:22.630Z,100465.66
2022-12-09T01:12:24.555Z,100468.19
2022-12-09T01:13:26.546Z,100459.47
2022-12-09T01:14:28.364Z,100462.41
2022-12-09T01:15:31.207Z,100459.47
2022-12-09T01:16:34.999Z,100428.59
2022-12-09T01:17:38.412Z,100474.63
2022-12-09T01:18:40.493Z,100468.44
2022-12-09T01:19:42.336Z,100465.94
2022-12-09T01:20:44.288Z,100466.75
2022-12-09T01:21:46.334Z,100467.03
2022-12-09T01:22:48.309Z,100467.44
2022-12-09T01:23:50.218Z,100469.44
2022-12-09T01:24:52.035Z,100463.94
2022-12-09T01:25:53.887Z,100474.88
2022-12-09T01:26:55.961Z,100480.19
2022-12-09T01:27:58.065Z,100471.50
2022-12-09T01:28:59.778Z,100474.88
2022-12-09T01:30:01.657Z,100460.69
2022-12-09T01:31:10.146Z,100487.25
2022-12-09T01:32:12.056Z,100477.69
2022-12-09T01:33:14.437Z,100480.06
2022-12-09T01:34:16.257Z,100481.06
2022-12-09T01:35:18.301Z,100469.69
2022-12-09T01:36:23.997Z,100474.03
2022-12-09T01:37:25.984Z,100459.88
2022-12-09T01:38:27.761Z,100482.75
2022-12-09T01:39:29.599Z,100476.97
2022-12-09T01:40:31.549Z,100481.06
2022-12-09T01:41:34.455Z,100456.94
2022-12-09T01:42:36.944Z,100475.84
2022-12-09T01:43:40.287Z,100475.84
2022-12-09T01:45:20.682Z,100480.78
2022-12-09T01:46:24.555Z,100478.56
2022-12-09T01:47:26.597Z,100481.50
2022-12-09T01:48:31.805Z,100483.59
2022-12-09T01:49:42.522Z,100481.06
2022-12-09T01:51:10.773Z,100483.59
2022-12-09T01:52:21.339Z,100475.84
2022-12-09T01:53:27.429Z,100481.63
2022-12-09T01:54:30.794Z,100478.50
2022-12-09T01:55:33.591Z,100487.25
2022-12-09T01:56:37.198Z,100485.53
2022-12-09T01:57:43.703Z,100491.72
2022-12-09T01:58:47.368Z,100489.16
2022-12-09T01:59:49.969Z,100491.97
2022-12-09T02:00:52.133Z,100493.06
2022-12-09T02:01:59.445Z,100481.00
2022-12-09T02:03:02.691Z,100497.31
2022-12-09T02:04:05.963Z,100497.31
2022-12-09T02:05:08.736Z,100490.56
2022-12-09T02:06:11.434Z,100487.19
2022-12-09T02:07:14.471Z,100497.44
2022-12-09T02:08:18.905Z,100494.75
2022-12-09T02:09:25.019Z,100499.00
2022-12-09T02:10:30.516Z,100501.66
2022-12-09T02:11:53.377Z,100496.19
2022-12-09T02:13:41.944Z,100500.84
2022-12-09T02:14:59.065Z,100481.75
2022-12-09T02:16:05.351Z,100479.66
2022-12-09T02:17:39.258Z,100498.19
2022-12-09T02:18:55.790Z,100500.84
2022-12-09T02:20:10.458Z,100493.00
2022-12-09T02:21:35.127Z,100500.41
2022-12-09T02:22:45.291Z,100501.97
2022-12-09T02:23:56.061Z,100503.78
2022-12-09T02:25:10.860Z,100498.72
2022-12-09T02:26:25.196Z,100491.97
2022-12-09T02:27:35.519Z,100501.25
2022-12-09T02:28:47.182Z,100512.75
2022-12-09T02:30:08.533Z,100506.81
2022-12-09T02:31:38.537Z,100505.34
2022-12-09T02:32:58.556Z,100507.84
2022-12-09T02:34:07.340Z,100502.78
2022-12-09T02:35:19.542Z,100506.59
2022-12-09T02:36:26.044Z,100509.38
2022-12-09T02:37:38.662Z,100507.69
2022-12-09T02:38:43.718Z,100505.13
2022-12-09T02:39:55.140Z,100507.81
2022-12-09T02:41:06.970Z,100493.63
2022-12-09T02:42:17.058Z,100508.66
2022-12-09T02:43:24.863Z,100508.94
2022-12-09T02:44:30.826Z,100510.47
2022-12-09T02:45:34.152Z,100479.56
2022-12-09T02:46:39.617Z,100508.78
2022-12-09T02:47:49.726Z,100522.94
2022-12-09T02:48:59.311Z,100522.81
2022-12-09T02:50:06.489Z,100517.47
2022-12-09T02:51:17.333Z,100516.66
2022-12-09T02:52:19.915Z,100515.66
2022-12-09T02:53:24.629Z,100522.94
2022-12-09T02:54:30.825Z,100516.66
2022-12-09T02:55:34.291Z,100521.97
2022-12-09T02:56:37.332Z,100511.16
2022-12-09T02:57:40.735Z,100516.06
2022-12-09T02:58:44.519Z,100522.94
2022-12-09T02:59:55.355Z,100517.75
2022-12-09T03:00:58.254Z,100514.00
2022-12-09T03:02:21.808Z,100502.03
2022-12-09T03:03:24.629Z,100502.75
2022-12-09T03:04:28.719Z,100517.34
2022-12-09T03:05:34.365Z,100507.81
2022-12-09T03:06:42.663Z,100514.00
2022-12-09T03:08:07.098Z,100510.75
2022-12-09T03:09:28.725Z,100516.09
2022-12-09T03:10:41.215Z,100506.81
2022-12-09T03:11:43.277Z,100513.44
2022-12-09T03:12:52.984Z,100513.72
2022-12-09T03:14:09.940Z,100507.41
2022-12-09T03:15:16.104Z,100506.44
2022-12-09T03:16:31.935Z,100505.72
2022-12-09T03:17:37.073Z,100510.06
2022-12-09T03:18:44.614Z,100472.44
2022-12-09T03:19:52.952Z,100509.38
2022-12-09T03:20:55.501Z,100509.38
2022-12-09T03:22:09.174Z,100513.00
2022-12-09T03:23:15.596Z,100514.00
2022-12-09T03:24:26.566Z,100503.59
2022-12-09T03:25:33.187Z,100515.66
2022-12-09T03:26:38.358Z,100505.56
2022-12-09T03:27:51.535Z,100513.88
2022-12-09T03:28:55.896Z,100512.75
2022-12-09T03:30:00.242Z,100512.03
2022-12-09T03:31:07.387Z,100515.66
2022-12-09T03:32:14.662Z,100514.81
2022-12-09T03:33:18.835Z,100516.66
2022-12-09T03:34:26.346Z,100513.00
2022-12-09T03:35:42.575Z,100521.59
2022-12-09T03:36:48.572Z,100507.97
2022-12-09T03:37:52.024Z,100516.53
2022-12-09T03:38:54.974Z,100509.91
2022-12-09T03:39:58.085Z,100506.97
2022-12-09T03:41:20.112Z,100514.69
2022-12-09T03:42:26.691Z,100503.03
2022-12-09T03:43:33.665Z,100525.34
2022-12-09T03:45:04.409Z,100519.03
2022-12-09T03:46:07.708Z,100520.47
2022-12-09T03:47:10.620Z,100517.34
2022-12-09T03:48:12.784Z,100526.06
2022-12-09T03:49:15.421Z,100512.00
2022-12-09T03:50:18.125Z,100523.66
2022-12-09T03:51:30.350Z,100529.00
2022-12-09T03:52:46.082Z,100527.03
2022-12-09T03:53:58.823Z,100529.41
2022-12-09T03:55:07.731Z,100530.66
2022-12-09T03:56:12.451Z,100525.06
2022-12-09T03:57:19.464Z,100537.56
2022-12-09T03:58:21.980Z,100532.34
2022-12-09T03:59:25.869Z,100536.00
2022-12-09T04:00:28.191Z,100521.66
2022-12-09T04:01:32.039Z,100534.59
2022-12-09T04:02:34.305Z,100534.31
2022-12-09T04:03:36.252Z,100542.31
2022-12-09T04:04:42.284Z,100532.63
2022-12-09T04:05:44.541Z,100535.28
2022-12-09T04:06:48.173Z,100529.09
2022-12-09T04:07:50.148Z,100536.97
2022-12-09T04:08:54.453Z,100538.78
2022-12-09T04:09:58.930Z,100548.34
2022-12-09T04:11:00.914Z,100525.88
2022-12-09T04:12:02.977Z,100549.19
2022-12-09T04:13:05.093Z,100536.00
2022-12-09T04:14:10.584Z,100547.50
2022-12-09T04:15:17.014Z,100527.69
2022-12-09T04:16:18.896Z,100543.88
2022-12-09T04:17:21.014Z,100543.88
2022-12-09T04:18:23.334Z,100543.00
2022-12-09T04:19:25.348Z,100537.69
2022-12-09T04:20:27.442Z,100548.34
2022-12-09T04:21:29.520Z,100548.34
2022-12-09T04:22:31.311Z,100545.66
2022-12-09T04:23:35.655Z,100543.00
2022-12-09T04:24:41.187Z,100546.38
2022-12-09T04:25:43.206Z,100536.00
2022-12-09T04:26:45.749Z,100550.03
2022-12-09T04:27:47.515Z,100537.09
2022-12-09T04:28:50.201Z,100547.34
2022-12-09T04:29:51.965Z,100549.03
2022-12-09T04:30:54.203Z,100536.53
2022-12-09T04:31:56.406Z,100551.69
2022-12-09T04:33:00.142Z,100548.34
2022-12-09T04:34:08.333Z,100539.63
2022-12-09T04:35:11.239Z,100545.41
2022-12-09T04:36:15.966Z,100550.72
2022-12-09T04:37:17.959Z,100555.06
2022-12-09T04:38:19.678Z,100552.41
2022-12-09T04:39:21.317Z,100553.38
2022-12-09T04:40:24.730Z,100542.75
2022-12-09T04:41:26.845Z,100549.75
2022-12-09T04:42:29.138Z,100550.59
2022-12-09T04:43:31.498Z,100553.38
2022-12-09T04:44:33.604Z,100546.25
2022-12-09T04:45:36.949Z,100551.00
2022-12-09T04:46:38.790Z,100552.56
2022-12-09T04:47:40.558Z,100549.19
2022-12-09T04:48:42.671Z,100553.38
2022-12-09T04:49:44.356Z,100564.75
2022-12-09T04:50:46.077Z,100564.75
2022-12-09T04:51:47.892Z,100564.75
2022-12-09T04:52:49.642Z,100565.59
2022-12-09T04:53:51.446Z,100557.19
2022-12-09T04:54:53.320Z,100563.06
2022-12-09T04:56:12.092Z,100573.31
2022-12-09T04:57:13.849Z,100538.34
2022-12-09T04:58:15.631Z,100558.59
2022-12-09T04:59:17.429Z,100570.66
2022-12-09T05:00:20.133Z,100569.81
2022-12-09T05:01:28.450Z,100576.97
2022-12-09T05:02:32.861Z,100570.50
2022-12-09T05:03:36.003Z,100568.81
2022-12-09T05:04:38.568Z,100575.00
2022-12-09T05:05:40.954Z,100568.00
2022-12-09T05:06:43.295Z,100575.13
2022-12-09T05:07:46.886Z,100576.00
2022-12-09T05:08:50.489Z,100570.78
2022-12-09T05:09:52.440Z,100580.34
2022-12-09T05:10:54.630Z,100580.34
2022-12-09T05:11:59.929Z,100583.13
2022-12-09T05:13:02.116Z,100576.09
2022-12-09T05:14:04.344Z,100590.13
2022-12-09T05:15:07.049Z,100566.00
2022-12-09T05:16:16.002Z,100581.16
2022-12-09T05:17:18.972Z,100579.22
2022-12-09T05:18:21.136Z,100587.19
2022-12-09T05:19:23.522Z,100580.19
2022-12-09T05:20:29.894Z,100589.03
2022-12-09T05:21:31.968Z,100568.53
2022-12-09T05:22:34.137Z,100581.88
2022-12-09T05:23:36.339Z,100569.38
2022-12-09T05:24:38.300Z,100558.97
2022-12-09T05:25:40.570Z,100588.19
2022-12-09T05:26:42.404Z,100575.41
2022-12-09T05:27:44.502Z,100581.16
2022-12-09T05:28:46.862Z,100583.72
2022-12-09T05:29:48.820Z,100589.16
2022-12-09T05:30:50.700Z,100569.25
2022-12-09T05:31:53.228Z,100582.84
2022-12-09T05:32:55.338Z,100578.66
2022-12-09T05:33:59.185Z,100588.19
2022-12-09T05:35:01.107Z,100588.19
2022-12-09T05:36:03.710Z,100590.72
2022-12-09T05:37:05.506Z,100574.44
2022-12-09T05:38:07.394Z,100585.50
2022-12-09T05:39:09.433Z,100584.53
2022-12-09T05:40:12.508Z,100588.88
2022-12-09T05:41:14.851Z,100588.88
2022-12-09T05:42:17.209Z,100586.22
2022-12-09T05:43:19.429Z,100586.75
2022-12-09T05:44:21.501Z,100592.53
2022-12-09T05:45:23.430Z,100597.72
2022-12-09T05:46:25.203Z,100577.09
2022-12-09T05:47:27.109Z,100588.88
2022-12-09T05:48:30.213Z,100586.50
2022-12-09T05:49:32.261Z,100591.81
2022-12-09T05:50:34.215Z,100594.22
2022-12-09T05:51:36.216Z,100590.56
2022-12-09T05:52:38.406Z,100596.88
2022-12-09T05:53:40.336Z,100587.09
2022-12-09T05:54:42.497Z,100596.75
2022-12-09T05:55:44.384Z,100598.44
2022-12-09T05:56:48.904Z,100601.09
2022-12-09T05:57:51.677Z,100601.97
2022-12-09T05:58:55.186Z,100594.22
2022-12-09T05:59:57.392Z,100586.66
2022-12-09T06:01:07.235Z,100599.31
2022-12-09T06:02:10.369Z,100606.19
2022-12-09T06:03:13.559Z,100586.66
2022-12-09T06:04:15.557Z,100602.81
2022-12-09T06:05:18.303Z,100601.00
2022-12-09T06:06:23.008Z,100595.66
2022-12-09T06:07:25.122Z,100597.34
2022-12-09T06:08:27.475Z,100600.75
2022-12-09T06:09:29.446Z,100601.72
2022-12-09T06:10:32.467Z,100599.31
2022-12-09T06:11:34.849Z,100607.63
2022-12-09T06:12:36.985Z,100604.84
2022-12-09T06:13:38.860Z,100597.56
2022-12-09T06:14:41.018Z,100603.59
2022-12-09T06:15:43.094Z,100583.91
2022-12-09T06:16:44.902Z,100604.03
2022-12-09T06:17:47.469Z,100589.41
2022-12-09T06:18:50.487Z,100594.78
2022-12-09T06:19:52.760Z,100598.84
2022-12-09T06:20:54.641Z,100602.94
2022-12-09T06:21:56.609Z,100600.97
2022-12-09T06:22:58.543Z,100589.75
2022-12-09T06:24:00.784Z,100607.44
2022-12-09T06:25:02.559Z,100600.03
2022-12-09T06:26:05.078Z,100588.78
2022-12-09T06:27:07.025Z,100596.81
2022-12-09T06:28:08.861Z,100601.75
2022-12-09T06:29:10.649Z,100597.13
2022-12-09T06:30:12.584Z,100603.88
2022-12-09T06:31:15.479Z,100564.53
2022-12-09T06:32:18.037Z,100585.91
2022-12-09T06:33:45.934Z,100606.41
2022-12-09T06:34:41.558Z,100594.91
2022-12-09T06:35:43.450Z,100587.88
2022-12-09T06:36:45.775Z,100597.56
2022-12-09T06:37:47.645Z,100604.03
2022-12-09T06:38:49.580Z,100599.41
2022-12-09T06:39:51.498Z,100593.53
2022-12-09T06:40:53.270Z,100585.94
2022-12-09T06:41:54.972Z,100581.72
2022-12-09T06:42:57.098Z,100596.63
2022-12-09T06:44:00.058Z,100593.66
2022-12-09T06:45:01.966Z,100595.06
2022-12-09T06:46:11.204Z,100589.44
2022-12-09T06:47:13.297Z,100604.22
2022-12-09T06:48:15.254Z,100608.44
2022-12-09T06:49:17.560Z,100599.19
2022-12-09T06:50:19.920Z,100612.66
2022-12-09T06:51:23.690Z,100612.53
2022-12-09T06:52:25.862Z,100616.59
2022-12-09T06:53:27.738Z,100619.09
2022-12-09T06:54:29.701Z,100619.09
2022-12-09T06:55:31.717Z,100617.84
2022-12-09T06:56:33.953Z,100616.84
2022-12-09T06:57:36.338Z,100620.25
2022-12-09T06:58:38.588Z,100611.38
2022-12-09T06:59:40.456Z,100628.97
2022-12-09T07:00:42.863Z,100627.97
2022-12-09T07:01:45.803Z,100626.00
2022-12-09T07:02:47.894Z,100624.03
2022-12-09T07:03:52.603Z,100623.19
2022-12-09T07:04:55.823Z,100624.44
2022-12-09T07:05:58.649Z,100635.41
2022-12-09T07:07:00.787Z,100631.59
2022-12-09T07:08:02.906Z,100637.81
2022-12-09T07:09:19.753Z,100635.94
2022-12-09T07:10:21.752Z,100633.00
2022-12-09T07:11:24.761Z,100636.53
2022-12-09T07:12:26.694Z,100645.53
2022-12-09T07:13:28.824Z,100647.34
2022-12-09T07:14:30.758Z,100641.88
2022-12-09T07:15:32.760Z,100641.88
2022-12-09T07:16:35.399Z,100640.47
2022-12-09T07:17:37.706Z,100655.22
2022-12-09T07:18:39.806Z,100646.34
2022-12-09T07:19:41.760Z,100653.38
2022-12-09T07:20:44.041Z,100655.91
2022-12-09T07:21:46.294Z,100653.25
2022-12-09T07:22:48.401Z,100651.41
2022-12-09T07:23:51.141Z,100642.44
2022-12-09T07:24:53.500Z,100636.53
2022-12-09T07:25:58.622Z,100658.44
2022-12-09T07:27:04.730Z,100660.13
2022-12-09T07:28:10.304Z,100661.66
2022-12-09T07:29:12.231Z,100646.34
2022-12-09T07:30:14.265Z,100651.97
2022-12-09T07:31:22.406Z,100666.31
2022-12-09T07:32:24.498Z,100659.28
2022-12-09T07:33:27.050Z,100659.16
2022-12-09T07:34:29.245Z,100659.16
2022-12-09T07:35:31.511Z,100663.50
2022-12-09T07:36:35.781Z,100660.97
2022-12-09T07:37:38.032Z,100657.31
2022-12-09T07:38:39.852Z,100663.50
2022-12-09T07:39:41.833Z,100661.25
2022-12-09T07:40:43.751Z,100664.34
2022-12-09T07:41:47.806Z,100668.84
2022-12-09T07:42:51.750Z,100665.31
2022-12-09T07:43:57.240Z,100666.03
2022-12-09T07:44:59.114Z,100666.19
2022-12-09T07:46:06.096Z,100668.00
2022-12-09T07:47:08.522Z,100672.63
2022-12-09T07:48:11.083Z,100668.41
2022-12-09T07:49:13.038Z,100672.34
2022-12-09T07:50:14.962Z,100668.00
2022-12-09T07:51:17.106Z,100662.38
2022-12-09T07:52:19.800Z,100678.69
2022-12-09T07:53:21.681Z,100673.75
2022-12-09T07:54:23.901Z,100677.00
2022-12-09T07:55:25.701Z,100681.34
2022-12-09T07:56:28.669Z,100683.19
2022-12-09T07:57:31.119Z,100677.00
2022-12-09T07:58:33.734Z,100685.88
2022-12-09T07:59:35.490Z,100682.22
2022-12-09T08:00:37.251Z,100675.03
2022-12-09T08:01:40.012Z,100682.34
2022-12-09T08:02:42.150Z,100682.22
2022-12-09T08:03:44.370Z,100686.00
2022-12-09T08:04:46.410Z,100691.03
2022-12-09T08:05:53.685Z,100690.34
2022-12-09T08:06:56.092Z,100682.63
2022-12-09T08:07:58.527Z,100684.88
2022-12-09T08:09:02.408Z,100688.38
2022-12-09T08:10:05.426Z,100693.72
2022-12-09T08:11:19.926Z,100702.41
2022-12-09T08:12:24.965Z,100701.59
2022-12-09T08:13:26.654Z,100693.59
2022-12-09T08:14:28.488Z,100697.09
2022-12-09T08:15:30.367Z,100699.75
2022-12-09T08:16:32.755Z,100696.53
2022-12-09T08:17:34.961Z,100698.34
2022-12-09T08:18:38.149Z,100703.41
2022-12-09T08:19:40.374Z,100704.28
2022-12-09T08:20:42.695Z,100689.78
2022-12-09T08:21:48.417Z,100706.06
2022-12-09T08:22:53.164Z,100701.44
2022-12-09T08:23:57.530Z,100706.06
2022-12-09T08:24:59.603Z,100705.09
2022-12-09T08:26:01.808Z,100709.59
2022-12-09T08:27:03.779Z,100709.59
2022-12-09T08:28:06.343Z,100705.25
2022-12-09T08:29:10.361Z,100710.72
2022-12-09T08:30:13.562Z,100705.09
2022-12-09T08:31:18.735Z,100708.75
2022-12-09T08:32:21.014Z,100718.31
2022-12-09T08:33:23.181Z,100696.09
2022-12-09T08:34:25.561Z,100715.78
2022-12-09T08:35:29.968Z,100713.25
2022-12-09T08:36:32.473Z,100707.06
2022-12-09T08:37:34.536Z,100715.78
2022-12-09T08:38:36.466Z,100714.94
2022-12-09T08:39:38.667Z,100708.75
2022-12-09T08:40:40.790Z,100715.94
2022-12-09T08:41:43.325Z,100714.09
2022-12-09T08:42:45.827Z,100714.94
2022-12-09T08:43:48.429Z,100717.63
2022-12-09T08:44:51.830Z,100721.13
2022-12-09T08:46:00.181Z,100716.91
2022-12-09T08:47:02.178Z,100719.16
2022-12-09T08:48:04.620Z,100720.13
2022-12-09T08:49:08.184Z,100711.56
2022-12-09T08:50:10.776Z,100728.16
2022-12-09T08:51:13.318Z,100728.16
2022-12-09T08:52:15.180Z,100724.66
2022-12-09T08:53:17.258Z,100721.13
2022-12-09T08:54:19.300Z,100721.13
2022-12-09T08:55:21.591Z,100725.63
2022-12-09T08:56:23.906Z,100721.41
2022-12-09T08:57:26.230Z,100730.13
2022-12-09T08:58:28.132Z,100710.16
2022-12-09T08:59:30.196Z,100725.63
2022-12-09T09:00:32.394Z,100728.16
2022-12-09T09:01:35.796Z,100730.97
2022-12-09T09:02:38.318Z,100714.50
2022-12-09T09:03:40.799Z,100728.16
2022-12-09T09:04:43.383Z,100718.03
2022-12-09T09:05:45.561Z,100721.13
2022-12-09T09:06:50.256Z,100730.81
2022-12-09T09:07:52.511Z,100728.16
2022-12-09T09:08:57.421Z,100724.50
2022-12-09T09:10:01.517Z,100732.38
2022-12-09T09:11:10.478Z,100732.38
2022-12-09T09:12:12.742Z,100727.88
2022-12-09T09:13:14.934Z,100726.03
2022-12-09T09:14:17.440Z,100713.94
2022-12-09T09:15:19.449Z,100715.47
2022-12-09T09:16:23.871Z,100735.16
2022-12-09T09:17:27.458Z,100736.84
2022-12-09T09:18:29.408Z,100736.03
2022-12-09T09:19:31.946Z,100737.00
2022-12-09T09:20:33.931Z,100734.19
2022-12-09T09:21:36.781Z,100737.00
2022-12-09T09:22:39.014Z,100744.03
2022-12-09T09:23:42.038Z,100738.81
2022-12-09T09:24:44.305Z,100727.72
2022-12-09T09:25:46.345Z,100732.94
2022-12-09T09:26:50.906Z,100739.81
2022-12-09T09:27:53.007Z,100729.41
2022-12-09T09:28:56.482Z,100730.28
2022-12-09T09:29:58.821Z,100737.84
2022-12-09T09:31:02.497Z,100738.81
2022-12-09T09:32:04.906Z,100742.19
2022-12-09T09:33:07.895Z,100737.13
2022-12-09T09:34:11.211Z,100727.72
2022-12-09T09:35:13.673Z,100752.88
2022-12-09T09:36:22.922Z,100738.00
2022-12-09T09:37:25.865Z,100744.03
2022-12-09T09:38:28.892Z,100744.88
2022-12-09T09:39:30.832Z,100741.66
2022-12-09T09:40:33.840Z,100744.03
2022-12-09T09:41:47.321Z,100747.53
2022-12-09T09:42:52.445Z,100750.91
2022-12-09T09:43:56.779Z,100736.03
2022-12-09T09:45:00.910Z,100743.88
2022-12-09T09:46:05.264Z,100731.25
2022-12-09T09:47:17.584Z,100750.50
2022-12-09T09:48:24.609Z,100741.06
2022-12-09T09:49:38.544Z,100751.78
2022-12-09T09:51:10.489Z,100757.53
2022-12-09T09:52:19.877Z,100744.19
2022-12-09T09:53:33.598Z,100753.19
2022-12-09T09:54:36.301Z,100753.19
2022-12-09T09:56:23.335Z,100754.69
2022-12-09T09:57:48.020Z,100752.44
2022-12-09T09:59:23.141Z,100769.47
2022-12-09T10:00:30.115Z,100754.41
2022-12-09T10:01:36.558Z,100745.03
2022-12-09T10:03:02.285Z,100758.63
2022-12-09T10:04:38.409Z,100753.72
2022-12-09T10:05:52.871Z,100764.41
2022-12-09T10:07:08.367Z,100758.50
2022-12-09T10:08:30.139Z,100762.59
2022-12-09T10:10:04.309Z,100755.41
2022-12-09T10:11:12.417Z,100759.06
2022-12-09T10:12:32.759Z,100767.22
2022-12-09T10:14:02.723Z,100764.28
2022-12-09T10:15:15.095Z,100759.06
2022-12-09T10:16:25.119Z,100757.94
2022-12-09T10:17:59.778Z,100772.69
2022-12-09T10:19:07.619Z,100770.59
2022-12-09T10:20:17.369Z,100773.56
2022-12-09T10:21:21.701Z,100776.34
2022-12-09T10:22:29.022Z,100774.81
2022-12-09T10:23:33.000Z,100781.00
2022-12-09T10:24:40.099Z,100780.28
2022-12-09T10:25:48.176Z,100768.91
2022-12-09T10:27:11.833Z,100782.97
2022-12-09T10:28:47.717Z,100780.72
2022-12-09T10:30:02.613Z,100782.81
2022-12-09T10:31:05.237Z,100775.78
2022-12-09T10:32:17.042Z,100745.13
2022-12-09T10:33:25.103Z,100783.38
2022-12-09T10:34:27.504Z,100780.72
2022-12-09T10:35:30.868Z,100764.53
2022-12-09T10:36:36.077Z,100781.00
2022-12-09T10:37:38.924Z,100780.00
2022-12-09T10:38:41.960Z,100734.47
2022-12-09T10:39:46.575Z,100775.94
2022-12-09T10:41:08.022Z,100762.72
2022-12-09T10:42:34.868Z,100773.41
2022-12-09T10:43:41.214Z,100776.78
2022-12-09T10:44:43.731Z,100780.44
2022-12-09T10:47:40.301Z,100774.41
2022-12-09T10:48:47.986Z,100775.66
2022-12-09T10:49:52.832Z,100781.13
2022-12-09T10:51:01.107Z,100768.91
2022-12-09T10:52:05.354Z,100781.41
2022-12-09T10:53:14.326Z,100779.88
2022-12-09T10:54:21.734Z,100789.56
2022-12-09T10:55:50.329Z,100779.44
2022-12-09T10:57:23.482Z,100779.91
2022-12-09T10:58:29.037Z,100774.56
2022-12-09T10:59:31.400Z,100770.44
2022-12-09T11:00:35.208Z,100772.41
2022-12-09T11:02:22.335Z,100777.63
2022-12-09T11:03:49.193Z,100776.94
2022-12-09T11:04:51.350Z,100786.06
2022-12-09T11:06:03.418Z,100782.81
2022-12-09T11:07:11.899Z,100780.31
2022-12-09T11:08:22.130Z,100785.78
2022-12-09T11:09:30.082Z,100784.94
2022-12-09T11:10:33.350Z,100775.66
2022-12-09T11:11:42.908Z,100789.69
2022-12-09T11:12:45.145Z,100791.41
2022-12-09T11:13:48.185Z,100771.84
2022-12-09T11:14:53.524Z,100778.31
2022-12-09T11:15:59.635Z,100780.00
2022-12-09T11:17:21.104Z,100777.91
2022-12-09T11:18:41.126Z,100784.09
2022-12-09T11:19:47.039Z,100782.13
2022-12-09T11:21:29.742Z,100778.22
2022-12-09T11:22:41.249Z,100773.28
2022-12-09T11:23:58.814Z,100792.50
2022-12-09T11:25:27.285Z,100789.59
2022-12-09T11:26:36.811Z,100803.19
2022-12-09T11:27:50.857Z,100759.19
2022-12-09T11:29:14.927Z,100791.81
2022-12-09T11:30:19.662Z,100794.34
2022-12-09T11:31:32.597Z,100801.78
2022-12-09T11:32:51.161Z,100789.41
2022-12-09T11:34:04.337Z,100790.97
2022-12-09T11:35:16.338Z,100780.00
2022-12-09T11:36:25.687Z,100785.78
2022-12-09T11:37:32.518Z,100782.56
2022-12-09T11:38:38.930Z,100792.09
2022-12-09T11:39:40.894Z,100788.88
2022-12-09T11:40:43.931Z,100786.91
2022-12-09T11:42:11.499Z,100801.25
2022-12-09T11:43:18.464Z,100789.84
2022-12-09T11:44:29.849Z,100790.28
2022-12-09T11:45:36.485Z,100793.94
2022-12-09T11:46:38.759Z,100795.03
2022-12-09T11:48:22.671Z,100800.25
2022-12-09T11:49:17.214Z,100801.50
2022-12-09T11:50:22.629Z,100801.78
2022-12-09T11:51:31.130Z,100802.66
2022-12-09T11:52:33.172Z,100808.13
2022-12-09T11:53:40.793Z,100803.75
2022-12-09T11:55:00.800Z,100809.81
2022-12-09T11:56:14.351Z,100804.47
2022-12-09T11:57:27.978Z,100809.97
2022-12-09T11:58:56.108Z,100809.41
2022-12-09T12:00:02.014Z,100803.34
2022-12-09T12:01:45.879Z,100812.94
2022-12-09T12:02:51.155Z,100813.63
2022-12-09T12:03:57.182Z,100812.19
2022-12-09T12:05:24.849Z,100812.34
2022-12-09T12:06:42.185Z,100811.38
2022-12-09T12:08:13.826Z,100802.66
2022-12-09T12:09:22.924Z,100794.94
2022-12-09T12:10:28.822Z,100798.41
2022-12-09T12:11:42.560Z,100807.84
2022-12-09T12:12:56.263Z,100794.22
2022-12-09T12:14:04.881Z,100805.16
2022-12-09T12:15:23.745Z,100797.44
2022-12-09T12:16:46.546Z,100808.53
2022-12-09T12:17:55.976Z,100805.75
2022-12-09T12:19:25.437Z,100807.72
2022-12-09T12:21:04.648Z,100806.03
2022-12-09T12:22:18.251Z,100810.53
2022-12-09T12:23:20.031Z,100813.34
2022-12-09T12:24:28.241Z,100807.59
2022-12-09T12:25:48.068Z,100804.06
2022-12-09T12:27:26.784Z,100804.63
2022-12-09T12:28:31.537Z,100802.66
2022-12-09T12:29:46.462Z,100810.09
2022-12-09T12:31:07.336Z,100810.25
2022-12-09T12:32:24.276Z,100801.50
2022-12-09T12:35:20.037Z,100800.97
2022-12-09T12:36:46.754Z,100809.69
2022-12-09T12:38:16.193Z,100806.31
2022-12-09T12:39:42.562Z,100808.72
2022-12-09T12:41:01.730Z,100805.34